EDT,Max TemperatureF,Mean TemperatureF,Min TemperatureF,Max Dew PointF,MeanDew PointF,Min DewpointF,Max Humidity, Mean Humidity, Min Humidity, Max Sea Level PressureIn, Mean Sea Level PressureIn, Min Sea Level PressureIn, Max VisibilityMiles, Mean VisibilityMiles, Min VisibilityMiles, Max Wind SpeedMPH, Mean Wind SpeedMPH, Max Gust SpeedMPH,PrecipitationIn, CloudCover, Events, WindDirDegrees
2013-8-1,75,67,61,65,62,58,94,85,64,30.05,29.94,29.85,10,6,1,12,3,,0.57,7,Rain,163
2013-8-2,80,71,62,65,62,56,100,79,43,29.91,29.86,29.80,10,7,0,14,2,21,0.14,4,Fog-Rain-Thunderstorm,270
2013-8-3,77,68,62,64,61,57,90,79,62,29.92,29.88,29.85,10,8,2,14,4,17,0.16,3,Rain,243
2013-8-4,77,66,55,60,56,52,94,76,42,29.98,29.90,29.85,10,8,2,9,3,16,0.11,1,Rain,251
2013-8-5,75,64,52,54,49,42,89,63,35,30.06,30.03,29.97,10,10,10,14,5,25,0.00,0,,291
2013-8-6,77,62,50,56,53,48,93,68,48,30.15,30.11,30.07,10,10,10,10,2,16,0.00,0,Rain,156
2013-8-7,75,65,57,64,59,54,93,75,59,30.18,30.14,30.09,10,10,10,12,4,20,0.00,6,Rain,156
2013-8-8,80,74,69,71,67,64,88,82,74,30.09,30.06,30.03,10,8,4,14,6,,0.04,6,Rain,181
2013-8-9,82,76,71,74,71,68,91,85,71,30.03,29.89,29.81,10,6,1,15,8,23,0.78,6,Rain-Thunderstorm,206
2013-8-10,81,72,60,67,60,53,94,72,40,30.07,29.97,29.87,10,8,1,9,4,20,0.01,0,,262
2013-8-11,77,64,51,59,54,48,90,68,40,30.14,30.09,30.04,10,10,10,8,3,,0.00,1,,237
2013-8-12,80,70,61,61,58,53,93,68,43,30.05,30.00,29.94,10,10,9,7,2,,0.00,2,,194
2013-8-13,75,68,64,67,64,61,94,86,71,29.94,29.82,29.72,10,6,0,8,1,,0.20,6,Fog-Rain,163
2013-8-14,73,64,55,61,50,46,87,60,43,30.05,29.86,29.76,10,10,10,14,6,25,0.00,3,,305
2013-8-15,73,62,50,53,49,45,89,67,38,30.17,30.11,30.06,10,10,10,8,4,,0.00,1,,253
2013-8-16,77,64,51,56,51,48,93,66,37,30.23,30.18,30.15,10,10,10,7,1,,0.00,1,,231
2013-8-17,80,65,52,61,55,49,90,71,42,30.30,30.27,30.24,10,10,9,6,1,,0.01,1,,209
2013-8-18,75,66,57,61,58,55,90,76,55,30.29,30.23,30.15,10,9,6,7,1,,0.00,1,Rain,137
2013-8-19,78,67,57,63,59,55,90,75,52,30.14,30.08,30.04,10,9,5,5,2,,0.01,1,Rain,261
2013-8-20,82,70,57,64,59,53,93,70,37,30.15,30.11,30.06,10,8,4,8,2,17,0.01,0,,274
2013-8-21,84,70,57,66,59,54,94,71,40,30.20,30.14,30.06,10,7,1,7,1,,0.00,0,,236
2013-8-22,75,69,63,68,65,60,94,86,73,30.09,30.03,29.93,10,5,1,9,2,,0.25,4,Rain-Thunderstorm,252
2013-8-23,78,72,62,61,55,50,83,55,41,30.09,30.02,29.97,10,10,7,10,6,20,0.00,0,,342
2013-8-24,77,63,51,55,51,48,88,58,37,30.38,30.32,30.28,10,10,10,8,3,,0.00,0,,107
2013-8-25,80,66,51,57,51,47,93,64,33,30.41,30.33,30.23,10,10,10,12,2,,0.00,0,,238
2013-8-26,75,70,64,66,60,54,90,72,62,30.23,30.08,29.93,10,9,4,8,3,,0.13,5,Rain,244
2013-8-27,82,75,66,67,66,64,94,82,54,29.94,29.88,29.83,10,7,1,12,4,17,0.63,6,Rain,325
2013-8-28,84,72,62,67,64,59,94,80,54,29.92,29.90,29.87,10,8,2,15,2,20,0.00,1,Thunderstorm,203
2013-8-29,77,70,66,66,64,60,94,83,60,30.06,30.00,29.94,10,6,1,10,3,,0.02,7,Rain,81
2013-8-30,82,72,64,67,63,60,94,77,56,30.05,29.97,29.87,10,8,3,12,4,,0.00,5,,224
2013-8-31,81,76,71,71,69,66,84,78,69,29.87,29.85,29.81,8,7,5,9,7,,0.00,4,Thunderstorm,212